Time;durP1;ratioP1;P1;durP2;ratioP2;P2;SDS_P1;SDS_P2;PMS_P1;PMS_P2;Temp;Humidity;BMP_temperature;BMP_pressure;BME280_temperature;BME280_humidity;BME280_pressure;Samples;Min_cycle;Max_cycle;Signal;HPM_P1;HPM_P2
2022/12/07 00:01:16;;;;;;;;;;;4.20;99.90;;;;;;5093107;28;19908;-40
2022/12/07 00:03:42;;;;;;;;;;;4.20;99.90;;;;;;5109246;28;19911;-43
2022/12/07 00:06:08;;;;;;;;;;;4.20;99.90;;;;;;5113197;28;19915;-43
2022/12/07 00:08:34;;;;;;;;;;;4.20;99.90;;;;;;5113231;28;19908;-42
2022/12/07 00:11:00;;;;;;;;;;;4.20;99.90;;;;;;5107168;28;19943;-40
2022/12/07 00:13:26;;;;;;;;;;;4.20;99.90;;;;;;5108859;28;19916;-40
2022/12/07 00:15:51;;;;;;;;;;;4.10;99.90;;;;;;5094727;28;20248;-42
2022/12/07 00:18:17;;;;;;;;;;;4.10;99.90;;;;;;5091927;28;19951;-42
2022/12/07 00:20:42;;;;;;;;;;;4.20;99.90;;;;;;5092304;28;19916;-42
2022/12/07 00:23:08;;;;;;;;;;;4.20;99.90;;;;;;5106900;28;19918;-41
2022/12/07 00:25:33;;;;;;;;;;;4.30;99.90;;;;;;5111748;28;19973;-40
2022/12/07 00:27:59;;;;;;;;;;;4.40;99.90;;;;;;5113228;28;19908;-42
2022/12/07 00:30:24;;;;;;;;;;;4.50;99.90;;;;;;5113076;28;20223;-42
2022/12/07 00:32:50;;;;;;;;;;;4.50;99.90;;;;;;5110494;28;20458;-41
2022/12/07 00:35:15;;;;;;;;;;;4.50;99.90;;;;;;5113115;28;19907;-41
2022/12/07 00:37:41;;;;;;;;;;;4.50;99.90;;;;;;5112583;28;19930;-41
2022/12/07 00:40:06;;;;;;;;;;;4.50;99.90;;;;;;5111702;28;19919;-41
2022/12/07 00:42:32;;;;;;;;;;;4.40;99.90;;;;;;5095081;28;19912;-42
2022/12/07 00:44:58;;;;;;;;;;;4.40;99.90;;;;;;5091453;28;19919;-41
2022/12/07 00:47:23;;;;;;;;;;;4.40;99.90;;;;;;5092427;28;20272;-41
2022/12/07 00:49:49;;;;;;;;;;;4.30;99.90;;;;;;5092391;28;19908;-44
2022/12/07 00:52:14;;;;;;;;;;;4.30;99.90;;;;;;5091769;28;19908;-42
2022/12/07 00:54:40;;;;;;;;;;;4.30;99.90;;;;;;5092338;28;20290;-41
2022/12/07 00:57:05;;;;;;;;;;;4.30;99.90;;;;;;5092394;28;19953;-42
2022/12/07 00:59:31;;;;;;;;;;;4.20;99.90;;;;;;5091569;28;19914;-45
2022/12/07 01:01:56;;;;;;;;;;;4.20;99.90;;;;;;5092301;28;19990;-42
2022/12/07 01:04:22;;;;;;;;;;;4.20;99.90;;;;;;5092400;28;19951;-41
2022/12/07 01:06:47;;;;;;;;;;;4.20;99.90;;;;;;5091333;28;19918;-43
2022/12/07 01:09:13;;;;;;;;;;;4.10;99.90;;;;;;5092284;28;19947;-40
2022/12/07 01:11:38;;;;;;;;;;;4.00;99.90;;;;;;5096141;28;19984;-41
2022/12/07 01:14:04;;;;;;;;;;;4.00;99.90;;;;;;5111792;28;19908;-43
2022/12/07 01:16:30;;;;;;;;;;;4.00;99.90;;;;;;5112621;28;19907;-43
2022/12/07 01:18:56;;;;;;;;;;;4.00;99.90;;;;;;5112540;28;19908;-42
2022/12/07 01:21:23;;;;;;;;;;;4.00;99.90;;;;;;5111887;28;20290;-43
2022/12/07 01:23:49;;;;;;;;;;;3.90;99.90;;;;;;5112710;28;20366;-41
2022/12/07 01:26:15;;;;;;;;;;;3.90;99.90;;;;;;5112053;28;19969;-40
2022/12/07 01:28:41;;;;;;;;;;;3.90;99.90;;;;;;5111383;28;19915;-40
2022/12/07 01:31:10;;;;;;;;;;;4.00;99.90;;;;;;5112383;28;19912;-43
2022/12/07 01:33:36;;;;;;;;;;;4.00;99.90;;;;;;5115867;28;20381;-41
2022/12/07 01:36:02;;;;;;;;;;;3.90;99.90;;;;;;5115434;28;19907;-42
2022/12/07 01:38:29;;;;;;;;;;;3.90;99.90;;;;;;5116082;28;19908;-41
2022/12/07 01:40:55;;;;;;;;;;;3.90;99.90;;;;;;5109339;28;19908;-42
2022/12/07 01:43:20;;;;;;;;;;;3.90;99.90;;;;;;5094866;28;19909;-42
2022/12/07 01:45:46;;;;;;;;;;;4.00;99.90;;;;;;5095425;28;19961;-42
2022/12/07 01:48:13;;;;;;;;;;;4.00;99.90;;;;;;5094615;28;19908;-41
2022/12/07 01:50:40;;;;;;;;;;;4.10;99.90;;;;;;5095269;28;19908;-44
2022/12/07 01:53:06;;;;;;;;;;;4.10;99.90;;;;;;5095379;28;19944;-40
2022/12/07 01:55:32;;;;;;;;;;;4.10;99.90;;;;;;5094424;28;20287;-42
2022/12/07 01:57:58;;;;;;;;;;;4.10;99.90;;;;;;5095171;28;19916;-42
2022/12/07 02:00:23;;;;;;;;;;;4.10;99.90;;;;;;5095118;28;19920;-43
2022/12/07 02:02:49;;;;;;;;;;;4.10;99.90;;;;;;5094245;28;19913;-43
2022/12/07 02:05:15;;;;;;;;;;;4.20;99.90;;;;;;5095146;28;19999;-42
2022/12/07 02:07:41;;;;;;;;;;;4.20;99.90;;;;;;5095043;28;19912;-41
2022/12/07 02:10:16;;;;;;;;;;;4.30;99.90;;;;;;5093977;28;20398;-41
2022/12/07 02:12:42;;;;;;;;;;;4.30;99.90;;;;;;5094902;28;19980;-41
2022/12/07 02:15:08;;;;;;;;;;;4.50;99.90;;;;;;5094952;28;20353;-41
2022/12/07 02:17:56;;;;;;;;;;;4.50;99.90;;;;;;5094078;28;19908;-43
2022/12/07 02:20:21;;;;;;;;;;;4.50;99.90;;;;;;5094592;28;19959;-42
2022/12/07 02:23:04;;;;;;;;;;;4.60;99.90;;;;;;5112150;28;19993;-42
2022/12/07 02:25:32;;;;;;;;;;;4.50;99.90;;;;;;5114250;28;20019;-40
2022/12/07 02:28:11;;;;;;;;;;;4.50;99.90;;;;;;5107897;28;20359;-42
2022/12/07 02:30:42;;;;;;;;;;;4.40;99.90;;;;;;5096938;28;20481;-44
2022/12/07 02:33:11;;;;;;;;;;;4.40;99.90;;;;;;5094458;28;20011;-41
2022/12/07 02:35:36;;;;;;;;;;;4.30;99.90;;;;;;5094448;28;19912;-42
2022/12/07 02:38:08;;;;;;;;;;;4.30;99.90;;;;;;5093646;28;19919;-42
2022/12/07 02:40:38;;;;;;;;;;;4.20;99.90;;;;;;5095532;28;20309;-41
2022/12/07 02:43:32;;;;;;;;;;;4.20;99.90;;;;;;5114275;28;20294;-42
2022/12/07 02:46:01;;;;;;;;;;;4.10;99.90;;;;;;5095645;28;19923;-41
2022/12/07 02:51:31;;;;;;;;;;;4.10;99.90;;;;;;5108901;28;19919;-41
2022/12/07 02:53:56;;;;;;;;;;;4.00;99.90;;;;;;5114375;28;20477;-42
2022/12/07 02:56:27;;;;;;;;;;;4.00;99.90;;;;;;5103133;28;19958;-43
2022/12/07 02:59:15;;;;;;;;;;;3.90;99.90;;;;;;5093036;28;19998;-42
2022/12/07 03:01:44;;;;;;;;;;;3.90;99.90;;;;;;5094015;28;19908;-41
2022/12/07 03:04:18;;;;;;;;;;;4.00;99.90;;;;;;5094997;28;19908;-41
2022/12/07 03:06:46;;;;;;;;;;;4.00;99.90;;;;;;5093010;28;19920;-42
2022/12/07 03:09:20;;;;;;;;;;;3.90;99.90;;;;;;5093764;28;19908;-42
2022/12/07 03:11:48;;;;;;;;;;;4.00;99.90;;;;;;5093520;28;19957;-42
2022/12/07 03:14:17;;;;;;;;;;;4.00;99.90;;;;;;5092960;28;19965;-41
2022/12/07 03:16:45;;;;;;;;;;;4.00;99.90;;;;;;5093641;28;19915;-40
2022/12/07 03:19:12;;;;;;;;;;;4.20;99.90;;;;;;5093703;28;19947;-39
2022/12/07 03:21:40;;;;;;;;;;;4.20;99.90;;;;;;5092623;28;19908;-40
2022/12/07 03:24:08;;;;;;;;;;;4.30;99.90;;;;;;5093690;28;19915;-41
2022/12/07 03:26:36;;;;;;;;;;;4.30;99.90;;;;;;5092719;28;19916;-40
2022/12/07 03:29:04;;;;;;;;;;;4.30;99.90;;;;;;5093465;28;20444;-40
2022/12/07 03:31:32;;;;;;;;;;;4.30;99.90;;;;;;5093499;28;19908;-39
2022/12/07 03:34:08;;;;;;;;;;;4.20;99.90;;;;;;5098977;28;19912;-39
2022/12/07 03:36:38;;;;;;;;;;;4.20;99.90;;;;;;5113866;28;19912;-40
2022/12/07 03:39:03;;;;;;;;;;;4.10;99.90;;;;;;5113809;28;19995;-40
2022/12/07 03:41:30;;;;;;;;;;;4.00;99.90;;;;;;5101041;28;19991;-39
2022/12/07 03:43:57;;;;;;;;;;;4.00;99.90;;;;;;5093256;28;19912;-40
2022/12/07 03:46:28;;;;;;;;;;;4.00;99.90;;;;;;5093290;28;19969;-39
2022/12/07 03:49:12;;;;;;;;;;;4.00;99.90;;;;;;5092349;28;19912;-39
2022/12/07 03:51:50;;;;;;;;;;;4.00;99.90;;;;;;5093097;28;20371;-40
2022/12/07 03:54:21;;;;;;;;;;;4.00;99.90;;;;;;5092612;28;19915;-38
2022/12/07 03:56:47;;;;;;;;;;;4.00;99.90;;;;;;5092469;28;19912;-39
2022/12/07 03:59:14;;;;;;;;;;;4.00;99.90;;;;;;5092919;28;19919;-39
2022/12/07 04:01:41;;;;;;;;;;;4.00;99.90;;;;;;5093009;28;19912;-38
2022/12/07 04:04:06;;;;;;;;;;;4.00;99.90;;;;;;5102724;28;20362;-39
2022/12/07 04:06:32;;;;;;;;;;;4.10;99.90;;;;;;5113255;28;19920;-39
2022/12/07 04:08:57;;;;;;;;;;;4.10;99.90;;;;;;5112465;28;20306;-39
2022/12/07 04:11:23;;;;;;;;;;;4.10;99.90;;;;;;5113059;28;19946;-39
2022/12/07 04:16:33;;;;;;;;;;;4.10;99.90;;;;;;5112755;28;19961;-40
2022/12/07 04:18:58;;;;;;;;;;;4.00;99.90;;;;;;5113053;28;19912;-39
2022/12/07 04:21:24;;;;;;;;;;;4.00;99.90;;;;;;5113133;28;19908;-40
2022/12/07 04:23:49;;;;;;;;;;;4.00;99.90;;;;;;5112257;28;19908;-39
2022/12/07 04:26:14;;;;;;;;;;;3.90;99.90;;;;;;5113046;28;19916;-40
2022/12/07 04:28:40;;;;;;;;;;;3.90;99.90;;;;;;5112952;28;20324;-40
2022/12/07 04:31:05;;;;;;;;;;;3.90;99.90;;;;;;5112191;28;19908;-40
2022/12/07 04:33:31;;;;;;;;;;;3.90;99.90;;;;;;5107744;28;19952;-39
2022/12/07 04:35:56;;;;;;;;;;;3.80;99.90;;;;;;5092659;28;20413;-39
2022/12/07 04:38:22;;;;;;;;;;;3.80;99.90;;;;;;5092050;28;20014;-39
2022/12/07 04:40:47;;;;;;;;;;;3.80;99.90;;;;;;5092650;28;19930;-38
2022/12/07 04:43:13;;;;;;;;;;;3.70;99.90;;;;;;5092558;28;19912;-39
2022/12/07 04:45:38;;;;;;;;;;;3.70;99.90;;;;;;5091657;28;19958;-40
2022/12/07 04:48:04;;;;;;;;;;;3.60;99.90;;;;;;5092475;28;19915;-41
2022/12/07 04:50:29;;;;;;;;;;;3.70;99.90;;;;;;5092553;28;19909;-39
2022/12/07 04:52:54;;;;;;;;;;;3.60;99.90;;;;;;5091634;28;19914;-39
2022/12/07 04:55:20;;;;;;;;;;;3.60;99.90;;;;;;5092442;28;19961;-40
2022/12/07 04:57:45;;;;;;;;;;;3.60;99.90;;;;;;5092298;28;19912;-39
2022/12/07 05:00:11;;;;;;;;;;;3.50;99.90;;;;;;5091806;28;19908;-39
2022/12/07 05:02:36;;;;;;;;;;;3.50;99.90;;;;;;5092431;28;19920;-40
2022/12/07 05:05:02;;;;;;;;;;;3.60;99.90;;;;;;5108423;28;19923;-40
2022/12/07 05:07:27;;;;;;;;;;;3.60;99.90;;;;;;5116502;28;19915;-39
2022/12/07 05:09:53;;;;;;;;;;;3.60;99.90;;;;;;5116149;28;19938;-39
2022/12/07 05:12:18;;;;;;;;;;;3.60;99.90;;;;;;5115822;28;19908;-39
2022/12/07 05:14:44;;;;;;;;;;;3.70;99.90;;;;;;5116426;28;19993;-39
2022/12/07 05:17:11;;;;;;;;;;;3.70;99.90;;;;;;5116471;28;20010;-40
2022/12/07 05:19:36;;;;;;;;;;;3.80;99.90;;;;;;5115695;28;19915;-39
2022/12/07 05:22:02;;;;;;;;;;;3.70;99.90;;;;;;5116400;28;19916;-39
2022/12/07 05:24:27;;;;;;;;;;;3.80;99.90;;;;;;5116375;28;19915;-41
2022/12/07 05:26:53;;;;;;;;;;;3.80;99.90;;;;;;5115368;28;19920;-40
2022/12/07 05:29:18;;;;;;;;;;;3.90;99.90;;;;;;5116327;28;19914;-40
2022/12/07 05:31:44;;;;;;;;;;;3.90;99.90;;;;;;5116149;28;19907;-39
2022/12/07 05:34:10;;;;;;;;;;;4.00;99.90;;;;;;5106052;28;19912;-39
2022/12/07 05:36:35;;;;;;;;;;;4.00;99.90;;;;;;5095717;28;19908;-39
2022/12/07 05:39:00;;;;;;;;;;;4.10;99.90;;;;;;5095615;28;19983;-40
2022/12/07 05:44:10;;;;;;;;;;;4.10;99.90;;;;;;5095924;28;20394;-39
2022/12/07 05:46:35;;;;;;;;;;;4.10;99.90;;;;;;5095396;28;19955;-40
2022/12/07 05:49:01;;;;;;;;;;;4.10;99.90;;;;;;5094781;28;19961;-39
2022/12/07 05:51:26;;;;;;;;;;;4.00;99.90;;;;;;5095523;28;20006;-40
2022/12/07 05:53:52;;;;;;;;;;;3.90;99.90;;;;;;5095143;28;19908;-39
2022/12/07 05:56:17;;;;;;;;;;;3.90;99.90;;;;;;5094685;28;19915;-40
2022/12/07 06:01:27;;;;;;;;;;;3.80;99.90;;;;;;5094655;28;19918;-39
2022/12/07 06:03:52;;;;;;;;;;;3.80;99.90;;;;;;5101120;28;19926;-39
2022/12/07 06:06:18;;;;;;;;;;;3.60;99.90;;;;;;5115423;28;19958;-40
2022/12/07 06:08:43;;;;;;;;;;;3.60;99.90;;;;;;5114697;28;19915;-39
2022/12/07 06:13:53;;;;;;;;;;;3.50;99.90;;;;;;5115380;28;19915;-39
2022/12/07 06:16:19;;;;;;;;;;;3.50;99.90;;;;;;5114373;28;19908;-40
2022/12/07 06:18:44;;;;;;;;;;;3.40;99.90;;;;;;5113619;28;19965;-39
2022/12/07 06:21:09;;;;;;;;;;;3.40;99.90;;;;;;5115020;28;19915;-40
2022/12/07 06:23:35;;;;;;;;;;;3.40;99.90;;;;;;5114136;28;19933;-39
2022/12/07 06:26:00;;;;;;;;;;;3.30;99.90;;;;;;5106555;28;20370;-39
2022/12/07 06:28:26;;;;;;;;;;;3.20;99.90;;;;;;5109587;28;19908;-39
2022/12/07 06:30:58;;;;;;;;;;;3.20;99.90;;;;;;5114184;28;19951;-40
2022/12/07 06:33:24;;;;;;;;;;;3.10;99.90;;;;;;5109681;28;20418;-38
2022/12/07 06:35:49;;;;;;;;;;;3.10;99.90;;;;;;5094364;28;20050;-40
2022/12/07 06:38:15;;;;;;;;;;;3.10;99.90;;;;;;5093758;28;19908;-38
2022/12/07 06:40:40;;;;;;;;;;;3.10;99.90;;;;;;5094369;28;19908;-37
2022/12/07 06:43:06;;;;;;;;;;;3.10;99.90;;;;;;5094469;28;19999;-39
2022/12/07 06:45:31;;;;;;;;;;;3.10;99.90;;;;;;5096599;28;19971;-38
2022/12/07 06:47:57;;;;;;;;;;;3.10;99.90;;;;;;5114359;28;19908;-39
2022/12/07 06:50:22;;;;;;;;;;;3.10;99.90;;;;;;5114032;28;19918;-39
2022/12/07 06:52:47;;;;;;;;;;;3.10;99.90;;;;;;5113741;28;19908;-39
2022/12/07 06:55:13;;;;;;;;;;;3.20;99.90;;;;;;5105885;28;19916;-39
2022/12/07 06:57:38;;;;;;;;;;;3.20;99.90;;;;;;5104133;28;19908;-39
2022/12/07 07:00:04;;;;;;;;;;;3.20;99.90;;;;;;5094026;28;20358;-40
2022/12/07 07:02:30;;;;;;;;;;;3.30;99.90;;;;;;5093970;28;19927;-40
2022/12/07 07:04:55;;;;;;;;;;;3.30;99.90;;;;;;5109236;28;20719;-39
2022/12/07 07:07:21;;;;;;;;;;;3.40;99.90;;;;;;5114254;28;20003;-39
2022/12/07 07:09:46;;;;;;;;;;;3.40;99.90;;;;;;5113756;28;19908;-39
2022/12/07 07:12:12;;;;;;;;;;;3.50;99.90;;;;;;5105045;28;19958;-39
2022/12/07 07:14:37;;;;;;;;;;;3.50;99.90;;;;;;5094077;28;20433;-43
2022/12/07 07:17:03;;;;;;;;;;;3.50;99.90;;;;;;5094921;28;19969;-40
2022/12/07 07:19:28;;;;;;;;;;;3.60;99.90;;;;;;5120307;27;19968;-39
2022/12/07 07:21:54;;;;;;;;;;;3.60;99.90;;;;;;5104831;27;20402;-38
2022/12/07 07:24:19;;;;;;;;;;;3.60;99.90;;;;;;5096734;28;19919;-38
2022/12/07 07:26:45;;;;;;;;;;;3.60;99.90;;;;;;5098049;27;20282;-39
2022/12/07 07:29:10;;;;;;;;;;;3.60;99.90;;;;;;5106250;28;20376;-39
2022/12/07 07:31:37;;;;;;;;;;;3.60;99.90;;;;;;5110973;28;19912;-39
2022/12/07 07:34:02;;;;;;;;;;;3.60;99.90;;;;;;5112208;28;19919;-40
2022/12/07 07:36:27;;;;;;;;;;;3.60;99.90;;;;;;5113242;28;19907;-39
2022/12/07 07:38:53;;;;;;;;;;;3.50;99.90;;;;;;5112723;28;19908;-39
2022/12/07 07:41:18;;;;;;;;;;;3.50;99.90;;;;;;5102025;28;19908;-40
2022/12/07 07:43:44;;;;;;;;;;;3.50;99.90;;;;;;5128529;27;19915;-39
2022/12/07 07:46:10;;;;;;;;;;;3.40;99.90;;;;;;5103935;28;19916;-40
2022/12/07 07:48:35;;;;;;;;;;;3.40;99.90;;;;;;5092214;28;19939;-40
2022/12/07 07:51:04;;;;;;;;;;;3.40;99.90;;;;;;5100150;28;20885;-40
2022/12/07 07:53:29;;;;;;;;;;;3.50;99.90;;;;;;5115677;27;19987;-38
2022/12/07 07:55:55;;;;;;;;;;;3.60;99.90;;;;;;5112267;28;20349;-40
2022/12/07 07:58:21;;;;;;;;;;;3.60;99.90;;;;;;5113517;28;19908;-41
2022/12/07 08:00:46;;;;;;;;;;;3.70;99.90;;;;;;5113160;28;19915;-39
2022/12/07 08:03:12;;;;;;;;;;;3.70;99.90;;;;;;5112549;28;19998;-40
2022/12/07 08:05:38;;;;;;;;;;;3.60;99.90;;;;;;5111985;28;19919;-40
2022/12/07 08:08:03;;;;;;;;;;;3.60;99.90;;;;;;5110869;28;20370;-40
2022/12/07 08:10:29;;;;;;;;;;;3.50;99.90;;;;;;5111311;28;19920;-41
2022/12/07 08:13:15;;;;;;;;;;;3.50;99.90;;;;;;5111536;28;19908;-39
2022/12/07 08:15:42;;;;;;;;;;;3.50;99.90;;;;;;5109185;28;19998;-42
2022/12/07 08:18:08;;;;;;;;;;;3.50;99.90;;;;;;5111724;28;20764;-41
2022/12/07 08:20:34;;;;;;;;;;;3.40;99.90;;;;;;5111389;28;20003;-40
2022/12/07 08:23:00;;;;;;;;;;;3.30;99.90;;;;;;5110854;28;19914;-39
2022/12/07 08:25:25;;;;;;;;;;;3.30;99.90;;;;;;5108611;28;20006;-41
2022/12/07 08:27:51;;;;;;;;;;;3.30;99.90;;;;;;5109015;28;20419;-40
2022/12/07 08:30:17;;;;;;;;;;;3.30;99.90;;;;;;5110003;28;19968;-40
2022/12/07 08:32:44;;;;;;;;;;;3.20;99.90;;;;;;5109455;28;19923;-39
2022/12/07 08:35:09;;;;;;;;;;;3.20;99.90;;;;;;5108982;28;19965;-41
2022/12/07 08:37:35;;;;;;;;;;;3.20;99.90;;;;;;5111352;28;19908;-41
2022/12/07 08:40:01;;;;;;;;;;;3.10;99.90;;;;;;5109846;28;19916;-39
2022/12/07 08:42:29;;;;;;;;;;;3.10;99.90;;;;;;5115423;28;20384;-39
2022/12/07 08:44:55;;;;;;;;;;;3.20;99.90;;;;;;5108272;28;20312;-39
2022/12/07 08:47:21;;;;;;;;;;;3.30;99.90;;;;;;5110547;28;19919;-39
2022/12/07 08:49:48;;;;;;;;;;;3.30;99.90;;;;;;5113061;28;19931;-39
2022/12/07 08:52:14;;;;;;;;;;;3.50;99.90;;;;;;5108579;28;20003;-41
2022/12/07 08:54:40;;;;;;;;;;;3.50;99.90;;;;;;5109449;28;20022;-39
2022/12/07 08:57:06;;;;;;;;;;;3.70;99.90;;;;;;5111655;28;20300;-42
2022/12/07 08:59:32;;;;;;;;;;;3.80;99.90;;;;;;5115518;27;19914;-41
2022/12/07 09:01:58;;;;;;;;;;;3.90;99.90;;;;;;5109418;28;19955;-39
2022/12/07 09:04:23;;;;;;;;;;;4.00;99.90;;;;;;5104898;28;19958;-40
2022/12/07 09:06:49;;;;;;;;;;;4.10;99.90;;;;;;5115005;28;19922;-39
2022/12/07 09:09:14;;;;;;;;;;;4.20;99.90;;;;;;5112623;28;20374;-41
2022/12/07 09:11:40;;;;;;;;;;;4.20;99.90;;;;;;5114259;28;19920;-39
2022/12/07 09:14:05;;;;;;;;;;;4.20;99.90;;;;;;5115333;28;19908;-40
2022/12/07 09:16:31;;;;;;;;;;;4.20;99.90;;;;;;5114861;28;19914;-39
2022/12/07 09:18:56;;;;;;;;;;;4.10;99.90;;;;;;5112878;28;19915;-40
2022/12/07 09:21:22;;;;;;;;;;;4.10;99.90;;;;;;5110540;28;20007;-38
2022/12/07 09:23:47;;;;;;;;;;;4.00;99.90;;;;;;5110465;28;20352;-40
2022/12/07 09:26:13;;;;;;;;;;;4.10;99.90;;;;;;5112468;28;19920;-40
2022/12/07 09:28:38;;;;;;;;;;;4.10;99.90;;;;;;5109337;28;19945;-39
2022/12/07 09:31:04;;;;;;;;;;;4.20;99.90;;;;;;5114292;28;20324;-39
2022/12/07 09:33:29;;;;;;;;;;;4.30;99.90;;;;;;5113832;28;20267;-39
2022/12/07 09:35:55;;;;;;;;;;;4.40;99.90;;;;;;5114574;28;20435;-40
2022/12/07 09:38:20;;;;;;;;;;;4.50;99.90;;;;;;5106875;28;20014;-40
2022/12/07 09:40:46;;;;;;;;;;;4.50;99.90;;;;;;5108435;28;19912;-39
2022/12/07 09:43:16;;;;;;;;;;;4.40;99.90;;;;;;5111566;28;20294;-40
2022/12/07 09:45:44;;;;;;;;;;;4.40;99.90;;;;;;5113145;28;19923;-39
2022/12/07 09:48:15;;;;;;;;;;;4.40;99.90;;;;;;5113611;28;19908;-41
2022/12/07 09:50:41;;;;;;;;;;;4.40;99.90;;;;;;5115637;28;19990;-39
2022/12/07 09:53:13;;;;;;;;;;;4.40;99.90;;;;;;5107160;28;20061;-39
2022/12/07 09:55:40;;;;;;;;;;;4.40;99.90;;;;;;5103930;27;19933;-40
2022/12/07 09:58:06;;;;;;;;;;;4.40;99.90;;;;;;5113282;27;19912;-39
2022/12/07 10:00:31;;;;;;;;;;;4.50;99.90;;;;;;5106423;28;19919;-39
2022/12/07 10:02:58;;;;;;;;;;;4.60;99.90;;;;;;5106075;28;19916;-38
2022/12/07 10:05:27;;;;;;;;;;;4.70;99.90;;;;;;5110817;28;19912;-39
2022/12/07 10:07:52;;;;;;;;;;;4.70;99.90;;;;;;5109120;28;20367;-40
2022/12/07 10:10:25;;;;;;;;;;;4.90;99.90;;;;;;5108529;27;19973;-39
2022/12/07 10:12:57;;;;;;;;;;;4.90;99.90;;;;;;5113126;28;19927;-41
2022/12/07 10:15:23;;;;;;;;;;;4.90;99.90;;;;;;5114667;28;19969;-41
2022/12/07 10:17:49;;;;;;;;;;;4.90;99.90;;;;;;5125578;27;20380;-40
2022/12/07 10:20:16;;;;;;;;;;;4.90;99.90;;;;;;5135864;27;19912;-39
2022/12/07 10:22:53;;;;;;;;;;;4.90;99.90;;;;;;5129445;27;20295;-39
2022/12/07 10:25:20;;;;;;;;;;;5.00;99.90;;;;;;5104727;28;20033;-42
2022/12/07 10:27:57;;;;;;;;;;;5.00;99.90;;;;;;5113474;28;19953;-39
2022/12/07 10:30:22;;;;;;;;;;;5.00;99.90;;;;;;5117037;27;20002;-44
2022/12/07 10:32:48;;;;;;;;;;;5.00;99.90;;;;;;5100310;28;19971;-41
2022/12/07 10:35:16;;;;;;;;;;;5.00;99.90;;;;;;5095237;28;19908;-41
2022/12/07 10:37:42;;;;;;;;;;;5.00;99.90;;;;;;5113952;28;19907;-41
2022/12/07 10:40:24;;;;;;;;;;;5.00;99.90;;;;;;5115411;28;20006;-41
2022/12/07 10:43:02;;;;;;;;;;;5.10;99.90;;;;;;5114208;28;20397;-41
2022/12/07 10:45:27;;;;;;;;;;;5.10;99.90;;;;;;5111916;28;19908;-42
2022/12/07 10:48:22;;;;;;;;;;;5.10;99.90;;;;;;5106150;28;20018;-39
2022/12/07 10:51:07;;;;;;;;;;;5.10;99.90;;;;;;5097567;27;19912;-41
2022/12/07 10:53:49;;;;;;;;;;;5.10;99.90;;;;;;5110779;27;19918;-40
2022/12/07 10:56:23;;;;;;;;;;;5.00;99.90;;;;;;5135741;27;20320;-40
2022/12/07 10:59:15;;;;;;;;;;;5.00;99.90;;;;;;5134863;27;19914;-41
2022/12/07 11:01:40;;;;;;;;;;;5.10;99.90;;;;;;5126558;27;19907;-46
2022/12/07 11:04:24;;;;;;;;;;;5.20;99.90;;;;;;5110509;28;19919;-39
2022/12/07 11:06:52;;;;;;;;;;;5.30;99.90;;;;;;5116642;27;20030;-41
2022/12/07 11:09:21;;;;;;;;;;;5.40;99.90;;;;;;5120753;27;19920;-40
2022/12/07 11:11:49;;;;;;;;;;;5.50;99.90;;;;;;5115995;27;19923;-41
2022/12/07 11:14:24;;;;;;;;;;;5.40;99.90;;;;;;5124744;27;19912;-38
2022/12/07 11:16:57;;;;;;;;;;;5.40;99.90;;;;;;5099546;27;20002;-39
2022/12/07 11:19:29;;;;;;;;;;;5.30;99.90;;;;;;5133672;27;20361;-41
2022/12/07 11:21:56;;;;;;;;;;;5.30;99.90;;;;;;5132562;27;21435;-39
2022/12/07 11:24:47;;;;;;;;;;;5.40;99.90;;;;;;5097695;27;20031;-42
2022/12/07 11:27:13;;;;;;;;;;;5.30;99.90;;;;;;5104332;27;19926;-41
2022/12/07 11:29:44;;;;;;;;;;;5.40;99.90;;;;;;5095344;28;19916;-40
2022/12/07 11:32:36;;;;;;;;;;;5.40;99.90;;;;;;5117111;27;20725;-39
2022/12/07 11:35:07;;;;;;;;;;;5.40;99.90;;;;;;5081504;28;20339;-39
2022/12/07 11:37:34;;;;;;;;;;;5.40;99.90;;;;;;5121055;27;19919;-40
2022/12/07 11:40:03;;;;;;;;;;;5.40;99.90;;;;;;5114160;27;19969;-40
2022/12/07 11:42:31;;;;;;;;;;;5.40;99.90;;;;;;5105019;28;20387;-39
2022/12/07 11:45:01;;;;;;;;;;;5.40;99.90;;;;;;5111652;27;20031;-39
2022/12/07 11:47:36;;;;;;;;;;;5.40;99.90;;;;;;5128474;27;19915;-42
2022/12/07 11:50:08;;;;;;;;;;;5.30;99.90;;;;;;5123946;27;20255;-39
2022/12/07 11:52:44;;;;;;;;;;;5.20;99.90;;;;;;5110016;27;19916;-41
2022/12/07 11:55:21;;;;;;;;;;;5.20;99.90;;;;;;5097748;28;20363;-39
2022/12/07 11:57:51;;;;;;;;;;;5.30;99.90;;;;;;5111242;27;19912;-42
2022/12/07 12:00:17;;;;;;;;;;;5.40;99.90;;;;;;5095633;28;19908;-41
2022/12/07 12:02:52;;;;;;;;;;;5.60;99.90;;;;;;5110226;27;19920;-43
2022/12/07 12:05:17;;;;;;;;;;;5.90;99.90;;;;;;5107455;27;19921;-41
2022/12/07 12:07:44;;;;;;;;;;;6.00;99.90;;;;;;5095600;27;19928;-44
2022/12/07 12:10:39;;;;;;;;;;;6.10;99.90;;;;;;5112921;28;19971;-41
2022/12/07 12:13:23;;;;;;;;;;;6.10;99.90;;;;;;5033722;28;19917;-40
2022/12/07 12:15:48;;;;;;;;;;;6.10;99.90;;;;;;5117923;27;20543;-41
2022/12/07 12:18:34;;;;;;;;;;;6.10;99.90;;;;;;5101626;27;20224;-41
2022/12/07 12:21:26;;;;;;;;;;;6.00;99.90;;;;;;5078089;28;19963;-42
2022/12/07 12:23:56;;;;;;;;;;;6.10;99.90;;;;;;5088437;28;20283;-42
2022/12/07 12:26:23;;;;;;;;;;;6.20;99.90;;;;;;5095968;28;20382;-40
2022/12/07 12:29:21;;;;;;;;;;;6.30;99.90;;;;;;5102909;28;19915;-40
2022/12/07 12:31:47;;;;;;;;;;;6.30;99.90;;;;;;5055032;28;19919;-40
2022/12/07 12:34:37;;;;;;;;;;;6.30;99.90;;;;;;5101495;28;19915;-39
2022/12/07 12:37:13;;;;;;;;;;;6.30;99.90;;;;;;5099544;28;19919;-40
2022/12/07 12:39:38;;;;;;;;;;;6.40;99.90;;;;;;5111417;28;19916;-39
2022/12/07 12:42:17;;;;;;;;;;;6.40;99.90;;;;;;5112153;28;19912;-41
2022/12/07 12:45:02;;;;;;;;;;;6.50;99.90;;;;;;5108287;28;19912;-42
2022/12/07 12:48:04;;;;;;;;;;;6.40;99.90;;;;;;5100578;28;20290;-40
2022/12/07 12:50:32;;;;;;;;;;;6.30;99.90;;;;;;5029982;28;19909;-41
2022/12/07 12:53:03;;;;;;;;;;;6.20;99.90;;;;;;5100343;28;19912;-40
2022/12/07 12:55:48;;;;;;;;;;;6.10;99.90;;;;;;5104406;28;19947;-40
2022/12/07 12:58:17;;;;;;;;;;;6.10;99.90;;;;;;5105064;28;19965;-40
2022/12/07 13:00:43;;;;;;;;;;;6.00;99.90;;;;;;5104497;28;19915;-39
2022/12/07 13:03:21;;;;;;;;;;;6.00;99.90;;;;;;5112980;28;19947;-41
2022/12/07 13:05:46;;;;;;;;;;;5.90;99.90;;;;;;5108535;28;20018;-39
2022/12/07 13:08:17;;;;;;;;;;;5.90;99.90;;;;;;5113215;28;20442;-40
2022/12/07 13:10:43;;;;;;;;;;;6.00;99.90;;;;;;5111801;28;19920;-40
2022/12/07 13:13:15;;;;;;;;;;;6.00;99.90;;;;;;5106376;28;19916;-41
2022/12/07 13:15:40;;;;;;;;;;;6.00;99.90;;;;;;5092450;28;20311;-39
2022/12/07 13:18:25;;;;;;;;;;;6.10;99.90;;;;;;5092850;28;20002;-41
2022/12/07 13:20:52;;;;;;;;;;;6.10;99.90;;;;;;5091574;28;19939;-42
2022/12/07 13:23:18;;;;;;;;;;;6.10;99.90;;;;;;5091234;28;19963;-40
2022/12/07 13:26:10;;;;;;;;;;;6.10;99.90;;;;;;5091440;28;19927;-43
2022/12/07 13:28:39;;;;;;;;;;;5.90;99.90;;;;;;5106950;28;20505;-40
2022/12/07 13:31:13;;;;;;;;;;;5.70;99.90;;;;;;5116742;28;19961;-39
2022/12/07 13:33:42;;;;;;;;;;;5.60;99.90;;;;;;5116041;28;19908;-39
2022/12/07 13:36:15;;;;;;;;;;;5.50;99.90;;;;;;5116821;28;19914;-42
2022/12/07 13:38:48;;;;;;;;;;;5.50;99.90;;;;;;5099885;28;19912;-41
2022/12/07 13:41:14;;;;;;;;;;;5.40;99.90;;;;;;5096275;28;19931;-40
2022/12/07 13:43:44;;;;;;;;;;;5.30;99.90;;;;;;5096353;28;19962;-42
2022/12/07 13:46:16;;;;;;;;;;;5.30;99.90;;;;;;5103339;28;19959;-39
2022/12/07 13:48:49;;;;;;;;;;;5.30;99.90;;;;;;5116326;28;20351;-43
2022/12/07 13:51:22;;;;;;;;;;;5.20;99.90;;;;;;5116549;28;19908;-39
2022/12/07 13:53:49;;;;;;;;;;;5.20;99.90;;;;;;5115924;28;19914;-39
2022/12/07 13:56:15;;;;;;;;;;;5.20;99.90;;;;;;5107724;28;20007;-40
2022/12/07 13:58:41;;;;;;;;;;;5.10;99.90;;;;;;5096185;28;20414;-39
2022/12/07 14:01:07;;;;;;;;;;;5.20;99.90;;;;;;5095465;28;19951;-41
2022/12/07 14:03:33;;;;;;;;;;;5.20;99.90;;;;;;5095758;28;19908;-39
2022/12/07 14:06:05;;;;;;;;;;;5.20;99.90;;;;;;5101407;28;20366;-40
2022/12/07 14:08:30;;;;;;;;;;;5.10;99.90;;;;;;5115583;28;20366;-40
2022/12/07 14:10:57;;;;;;;;;;;5.20;99.90;;;;;;5115712;28;19975;-39
2022/12/07 14:13:28;;;;;;;;;;;5.20;99.90;;;;;;5116084;28;19908;-41
2022/12/07 14:15:54;;;;;;;;;;;5.10;99.90;;;;;;5109957;28;20519;-41
2022/12/07 14:18:27;;;;;;;;;;;5.20;99.90;;;;;;5095606;28;19954;-40
2022/12/07 14:21:02;;;;;;;;;;;5.20;99.90;;;;;;5095498;28;20493;-41
2022/12/07 14:23:28;;;;;;;;;;;5.10;99.90;;;;;;5095629;28;19912;-42
2022/12/07 14:25:53;;;;;;;;;;;5.10;99.90;;;;;;5099937;28;19930;-40
2022/12/07 14:28:26;;;;;;;;;;;5.10;99.90;;;;;;5114889;28;19934;-40
2022/12/07 14:30:52;;;;;;;;;;;5.00;99.90;;;;;;5115657;28;20266;-41
2022/12/07 14:33:17;;;;;;;;;;;5.00;99.90;;;;;;5115889;28;19908;-42
2022/12/07 14:35:43;;;;;;;;;;;5.00;99.90;;;;;;5113121;28;19914;-40
2022/12/07 14:38:08;;;;;;;;;;;5.00;99.90;;;;;;5094641;28;19939;-39
2022/12/07 14:40:34;;;;;;;;;;;5.00;99.90;;;;;;5095116;28;19912;-39
2022/12/07 14:43:01;;;;;;;;;;;5.00;99.90;;;;;;5094415;28;19961;-41
2022/12/07 14:45:27;;;;;;;;;;;5.00;99.90;;;;;;5095241;28;19993;-39
2022/12/07 14:47:52;;;;;;;;;;;4.90;99.90;;;;;;5113458;28;19973;-39
2022/12/07 14:50:19;;;;;;;;;;;4.90;99.90;;;;;;5115050;28;19977;-40
2022/12/07 14:52:47;;;;;;;;;;;4.90;99.90;;;;;;5114864;28;19908;-39